createdAt,value
2015-12-18T00:00:39.042Z,946
2015-12-18T00:01:43.841Z,946
2015-12-18T00:02:38.780Z,946
2015-12-18T00:03:38.409Z,946
2015-12-18T00:05:37.930Z,946
2015-12-18T00:06:37.339Z,946
2015-12-18T00:07:40.155Z,946
2015-12-18T00:08:39.329Z,946
2015-12-18T00:11:38.291Z,946
2015-12-18T00:12:37.965Z,946
2015-12-18T00:13:37.686Z,945
2015-12-18T00:14:37.205Z,945
2015-12-18T00:15:36.911Z,945
2015-12-18T00:16:39.601Z,946
2015-12-18T00:18:38.138Z,945
2015-12-18T00:19:38.047Z,945
2015-12-18T00:20:37.596Z,945
2015-12-18T00:21:40.318Z,945
2015-12-18T00:22:37.008Z,944
2015-12-18T00:23:36.761Z,944
2015-12-18T00:24:36.498Z,944
2015-12-18T00:25:36.517Z,944
2015-12-18T00:26:35.925Z,944
2015-12-18T00:27:38.741Z,944
2015-12-18T00:28:37.431Z,944
2015-12-18T00:29:37.137Z,944
2015-12-18T00:30:37.108Z,944
2015-12-18T00:31:36.783Z,944
2015-12-18T00:32:36.302Z,944
2015-12-18T00:33:36.319Z,944
2015-12-18T00:34:36.276Z,944
2015-12-18T00:35:36.497Z,944
2015-12-18T00:36:36.202Z,944
2015-12-18T00:39:38.179Z,944
2015-12-18T00:40:37.963Z,944
2015-12-18T00:41:37.903Z,944
2015-12-18T00:42:37.890Z,944
2015-12-18T00:43:37.878Z,944
2015-12-18T00:44:38.099Z,944
2015-12-18T00:45:37.834Z,944
2015-12-18T00:46:43.589Z,943
2015-12-18T00:47:37.620Z,943
2015-12-18T00:48:39.514Z,943
2015-12-18T00:49:38.782Z,943
2015-12-18T00:50:38.535Z,943
2015-12-18T00:51:41.225Z,943
2015-12-18T00:52:37.979Z,943
2015-12-18T00:53:37.700Z,943
2015-12-18T00:54:43.437Z,944
2015-12-18T00:55:37.127Z,943
2015-12-18T00:56:36.896Z,944
2015-12-18T00:57:39.664Z,944
2015-12-18T00:59:41.092Z,943
2015-12-18T01:00:37.812Z,943
2015-12-18T01:03:36.946Z,943
2015-12-18T01:04:37.199Z,943
2015-12-18T01:05:36.451Z,942
2015-12-18T01:06:36.111Z,943
2015-12-18T01:07:35.942Z,942
2015-12-18T01:08:37.663Z,942
2015-12-18T01:09:37.572Z,943
2015-12-18T01:10:37.293Z,943
2015-12-18T01:11:36.812Z,943
2015-12-18T01:12:36.518Z,943
2015-12-18T01:13:36.301Z,943
2015-12-18T01:14:38.961Z,943
2015-12-18T01:16:35.404Z,943
2015-12-18T01:19:36.661Z,943
2015-12-18T01:20:36.556Z,943
2015-12-18T01:21:36.073Z,943
2015-12-18T01:23:35.545Z,943
2015-12-18T01:24:35.235Z,943
2015-12-18T01:25:34.973Z,943
2015-12-18T01:26:34.897Z,943
2015-12-18T01:27:37.483Z,943
2015-12-18T01:30:35.975Z,943
2015-12-18T01:31:35.385Z,943
2015-12-18T01:32:35.263Z,944
2015-12-18T01:33:34.843Z,944
2015-12-18T01:34:37.800Z,944
2015-12-18T01:35:40.802Z,944
2015-12-18T01:37:38.026Z,944
2015-12-18T01:38:36.233Z,944
2015-12-18T01:39:36.251Z,944
2015-12-18T01:40:39.238Z,944
2015-12-18T01:42:36.180Z,945
2015-12-18T01:43:36.121Z,945
2015-12-18T01:44:39.327Z,945
2015-12-18T01:46:39.083Z,945
2015-12-18T01:47:36.148Z,945
2015-12-18T01:48:37.853Z,945
2015-12-18T01:49:37.825Z,945
2015-12-18T01:51:38.065Z,945
2015-12-18T01:52:37.755Z,945
2015-12-18T01:54:37.777Z,945
2015-12-18T01:55:37.686Z,945
2015-12-18T01:56:37.907Z,946
2015-12-18T01:57:44.252Z,945
2015-12-18T01:58:39.927Z,946
2015-12-18T01:59:40.180Z,946
2015-12-18T02:01:40.607Z,946
2015-12-18T02:03:41.082Z,946
2015-12-18T02:04:41.382Z,946
2015-12-18T02:05:41.557Z,946
2015-12-18T02:06:47.809Z,946
2015-12-18T02:08:43.799Z,946
2015-12-18T02:09:44.051Z,946
2015-12-18T02:10:44.273Z,946
2015-12-18T02:11:44.495Z,946
2015-12-18T02:13:44.998Z,946
2015-12-18T02:15:45.457Z,946
2015-12-18T02:16:45.724Z,946
2015-12-18T02:18:47.729Z,946
2015-12-18T02:20:48.454Z,946
2015-12-18T02:21:52.129Z,946
2015-12-18T02:22:49.726Z,946
2015-12-18T02:24:50.432Z,946
2015-12-18T02:25:51.564Z,947
2015-12-18T02:26:54.228Z,947
2015-12-18T02:27:53.278Z,946
2015-12-18T02:28:54.046Z,947
2015-12-18T02:32:55.855Z,947
2015-12-18T02:33:59.171Z,947
2015-12-18T02:34:56.595Z,947
2015-12-18T02:36:03.082Z,946
2015-12-18T02:36:57.577Z,946
2015-12-18T02:37:58.688Z,947
2015-12-18T02:39:00.066Z,947
2015-12-18T02:40:00.318Z,947
2015-12-18T02:41:00.806Z,947
2015-12-18T02:43:01.764Z,947
2015-12-18T02:44:02.032Z,947
2015-12-18T02:46:06.006Z,947
2015-12-18T02:47:03.540Z,947
2015-12-18T02:48:04.371Z,947
2015-12-18T02:49:08.764Z,947
2015-12-18T02:50:06.267Z,947
2015-12-18T02:51:09.769Z,947
2015-12-18T02:52:10.241Z,947
2015-12-18T02:53:07.744Z,947
2015-12-18T02:55:08.687Z,947
2015-12-18T02:56:09.534Z,947
2015-12-18T02:58:10.727Z,947
2015-12-18T03:00:16.498Z,947
2015-12-18T03:01:13.944Z,947
2015-12-18T03:02:15.055Z,947
2015-12-18T03:03:15.433Z,947
2015-12-18T03:04:16.186Z,947
2015-12-18T03:05:16.907Z,947
2015-12-18T03:06:18.269Z,947
2015-12-18T03:07:18.429Z,947
2015-12-18T03:08:19.213Z,947
2015-12-18T03:09:20.949Z,947
2015-12-18T03:10:24.688Z,947
2015-12-18T03:11:22.471Z,947
2015-12-18T03:12:23.240Z,947
2015-12-18T03:13:23.945Z,947
2015-12-18T03:14:24.683Z,947
2015-12-18T03:20:30.495Z,947
2015-12-18T03:21:30.935Z,947
2015-12-18T03:22:31.954Z,947
2015-12-18T03:23:32.457Z,947
2015-12-18T03:25:34.118Z,947
2015-12-18T03:27:35.686Z,947
2015-12-18T03:30:38.710Z,947
2015-12-18T03:31:39.432Z,947
2015-12-18T03:32:40.154Z,947
2015-12-18T03:33:46.906Z,947
2015-12-18T03:34:44.690Z,947
2015-12-18T03:35:42.393Z,947
2015-12-18T03:36:43.178Z,947
2015-12-18T03:37:43.884Z,947
2015-12-18T03:38:44.683Z,947
2015-12-18T03:43:50.368Z,947
2015-12-18T03:44:50.418Z,947
2015-12-18T03:45:50.906Z,947
2015-12-18T03:46:51.627Z,947
2015-12-18T03:47:52.395Z,947
2015-12-18T03:48:53.179Z,947
2015-12-18T03:49:54.885Z,947
2015-12-18T03:50:55.920Z,947
2015-12-18T03:51:56.406Z,947
2015-12-18T03:52:57.129Z,947
2015-12-18T03:54:00.881Z,947
2015-12-18T03:54:58.868Z,947
2015-12-18T03:55:59.386Z,947
2015-12-18T03:57:00.420Z,947
2015-12-18T03:58:01.392Z,947
2015-12-18T04:00:04.162Z,947
2015-12-18T04:01:05.400Z,947
2015-12-18T04:02:06.434Z,947
2015-12-18T04:03:07.983Z,947
2015-12-18T04:04:09.205Z,947
2015-12-18T04:05:10.176Z,947
2015-12-18T04:06:11.475Z,947
2015-12-18T04:07:12.900Z,947
2015-12-18T04:08:13.748Z,947
2015-12-18T04:10:19.986Z,947
2015-12-18T04:12:20.930Z,947
2015-12-18T04:15:23.595Z,947
2015-12-18T04:19:28.934Z,947
2015-12-18T04:20:30.592Z,947
2015-12-18T04:21:32.095Z,947
2015-12-18T04:22:33.864Z,948
2015-12-18T04:23:35.414Z,947
2015-12-18T04:25:38.154Z,948
2015-12-18T04:27:41.206Z,947
2015-12-18T04:29:44.618Z,948
2015-12-18T04:30:49.027Z,947
2015-12-18T04:32:49.532Z,947
2015-12-18T04:33:51.316Z,948
2015-12-18T04:34:53.288Z,948
2015-12-18T04:35:54.869Z,948
2015-12-18T04:36:56.621Z,947
2015-12-18T04:37:58.421Z,947
2015-12-18T04:39:00.471Z,947
2015-12-18T04:40:02.269Z,947
2015-12-18T04:41:03.758Z,948
2015-12-18T04:42:05.541Z,948
2015-12-18T04:43:07.278Z,948
2015-12-18T04:44:09.343Z,948
2015-12-18T04:45:10.830Z,948
2015-12-18T04:46:12.772Z,948
2015-12-18T04:47:14.383Z,948
2015-12-18T04:48:22.167Z,948
2015-12-18T04:49:21.404Z,947
2015-12-18T04:50:19.704Z,948
2015-12-18T04:51:21.738Z,948
2015-12-18T04:52:26.241Z,948
2015-12-18T04:53:24.993Z,948
2015-12-18T04:54:29.793Z,948
2015-12-18T04:56:30.283Z,948
2015-12-18T04:57:37.207Z,948
2015-12-18T04:58:36.851Z,948
2015-12-18T04:59:35.604Z,948
2015-12-18T05:05:46.996Z,948
2015-12-18T05:06:49.013Z,948
2015-12-18T05:07:54.110Z,948
2015-12-18T05:08:53.129Z,948
2015-12-18T05:09:55.460Z,948
2015-12-18T05:10:57.181Z,948
2015-12-18T05:11:58.902Z,948
2015-12-18T05:13:00.983Z,948
2015-12-18T05:14:02.986Z,948
2015-12-18T05:16:07.055Z,948
2015-12-18T05:17:12.338Z,948
2015-12-18T05:18:11.543Z,948
2015-12-18T05:19:13.641Z,948
2015-12-18T05:21:18.615Z,948
2015-12-18T05:22:23.024Z,948
2015-12-18T05:23:22.276Z,948
2015-12-18T05:25:26.829Z,948
2015-12-18T05:26:25.301Z,948
2015-12-18T05:27:23.726Z,948
2015-12-18T05:28:22.166Z,948
2015-12-18T05:29:20.621Z,948
2015-12-18T05:30:19.343Z,948
2015-12-18T05:32:19.286Z,948
2015-12-18T05:33:20.710Z,948
2015-12-18T05:34:16.120Z,948
2015-12-18T05:35:14.841Z,948
2015-12-18T05:36:13.766Z,948
2015-12-18T05:37:12.254Z,948
2015-12-18T05:38:10.927Z,948
2015-12-18T05:39:12.602Z,948
2015-12-18T05:40:11.276Z,948
2015-12-18T05:41:07.045Z,948
2015-12-18T05:42:08.735Z,948
2015-12-18T05:44:06.178Z,948
2015-12-18T05:45:07.884Z,948
2015-12-18T05:46:03.573Z,948
2015-12-18T05:47:02.202Z,948
2015-12-18T05:48:01.204Z,948
2015-12-18T05:48:59.626Z,948
2015-12-18T05:49:58.301Z,948
2015-12-18T05:50:57.054Z,948
2015-12-18T05:51:58.775Z,948
2015-12-18T05:56:52.227Z,948
2015-12-18T05:57:50.917Z,948
2015-12-18T05:58:52.686Z,947
2015-12-18T05:59:48.407Z,948
2015-12-18T06:00:47.097Z,948
2015-12-18T06:01:48.772Z,948
2015-12-18T06:02:47.493Z,948
2015-12-18T06:03:46.183Z,948
2015-12-18T06:06:42.254Z,948
2015-12-18T06:09:38.356Z,948
2015-12-18T06:10:37.094Z,948
2015-12-18T06:11:38.784Z,948
2015-12-18T06:12:41.036Z,948
2015-12-18T06:13:37.036Z,948
2015-12-18T06:14:35.634Z,948
2015-12-18T06:15:37.651Z,948
2015-12-18T06:17:32.564Z,948
2015-12-18T06:18:31.423Z,948
2015-12-18T06:20:29.667Z,948
2015-12-18T06:21:31.640Z,948
2015-12-18T06:22:30.536Z,948
2015-12-18T06:23:29.698Z,948
2015-12-18T06:24:31.963Z,948
2015-12-18T06:25:28.413Z,948
2015-12-18T06:26:27.411Z,948
2015-12-18T06:27:26.580Z,948
2015-12-18T06:28:25.704Z,949
2015-12-18T06:29:25.205Z,948
2015-12-18T06:30:27.487Z,948
2015-12-18T06:31:28.941Z,948
2015-12-18T06:34:23.821Z,948
2015-12-18T06:35:22.714Z,948
2015-12-18T06:36:21.935Z,949
2015-12-18T06:38:20.610Z,949
2015-12-18T06:39:19.535Z,949
2015-12-18T06:40:19.131Z,949
2015-12-18T06:41:23.524Z,949
2015-12-18T06:43:18.951Z,948
2015-12-18T06:44:18.138Z,948
2015-12-18T06:45:17.891Z,948
2015-12-18T06:46:16.582Z,948
2015-12-18T06:47:15.819Z,948
2015-12-18T06:48:14.963Z,948
2015-12-18T06:49:14.683Z,949
2015-12-18T06:51:15.173Z,949
2015-12-18T06:52:17.395Z,948
2015-12-18T06:53:16.570Z,948
2015-12-18T06:54:12.760Z,949
2015-12-18T06:55:11.950Z,949
2015-12-18T06:56:11.469Z,949
2015-12-18T06:59:08.836Z,949
2015-12-18T07:00:08.621Z,949
2015-12-18T07:01:09.795Z,949
2015-12-18T07:02:11.985Z,949
2015-12-18T07:03:08.550Z,949
2015-12-18T07:04:07.396Z,949
2015-12-18T07:06:08.840Z,949
2015-12-18T07:07:05.014Z,949
2015-12-18T07:08:04.455Z,949
2015-12-18T07:09:06.441Z,949
2015-12-18T07:10:02.710Z,949
2015-12-18T07:11:04.463Z,949
2015-12-18T07:12:03.622Z,949
2015-12-18T07:13:03.109Z,949
2015-12-18T07:14:05.065Z,949
2015-12-18T07:15:01.252Z,949
2015-12-18T07:16:00.474Z,949
2015-12-18T07:16:59.648Z,949
2015-12-18T07:18:01.854Z,949
2015-12-18T07:19:57.687Z,949
2015-12-18T07:20:59.051Z,949
2015-12-18T07:22:01.443Z,949
2015-12-18T07:22:57.774Z,949
2015-12-18T07:23:59.730Z,949
2015-12-18T07:24:55.905Z,949
2015-12-18T07:25:55.315Z,948
2015-12-18T07:26:56.645Z,948
2015-12-18T07:27:56.570Z,948
2015-12-18T07:28:52.729Z,949
2015-12-18T07:29:52.200Z,949
2015-12-18T07:31:53.190Z,949
2015-12-18T07:32:52.411Z,949
2015-12-18T07:33:51.304Z,949
2015-12-18T07:34:50.807Z,949
2015-12-18T07:35:49.748Z,949
2015-12-18T07:36:49.250Z,949
2015-12-18T07:37:48.143Z,949
2015-12-18T07:38:47.365Z,949
2015-12-18T07:39:46.603Z,949
2015-12-18T07:40:48.356Z,949
2015-12-18T07:41:47.529Z,949
2015-12-18T07:42:46.782Z,949
2015-12-18T07:44:45.051Z,949
2015-12-18T07:46:46.572Z,949
2015-12-18T07:51:42.133Z,949
2015-12-18T07:52:41.386Z,949
2015-12-18T07:54:39.764Z,949
2015-12-18T07:55:39.001Z,949
2015-12-18T07:57:37.616Z,949
2015-12-18T07:58:36.634Z,949
2015-12-18T07:59:36.059Z,949
2015-12-18T08:00:37.498Z,949
2015-12-18T08:01:36.721Z,949
2015-12-18T08:02:36.004Z,949
2015-12-18T08:03:35.179Z,949
2015-12-18T08:04:34.370Z,949
2015-12-18T08:05:36.606Z,949
2015-12-18T08:06:33.109Z,949
2015-12-18T08:07:32.003Z,949
2015-12-18T08:08:31.193Z,949
2015-12-18T08:09:31.117Z,949
2015-12-18T08:10:32.511Z,949
2015-12-18T08:11:31.639Z,949
2015-12-18T08:12:31.172Z,949
2015-12-18T08:13:30.285Z,949
2015-12-18T08:14:29.522Z,949
2015-12-18T08:15:31.729Z,949
2015-12-18T08:16:27.916Z,949
2015-12-18T08:17:27.715Z,949
2015-12-18T08:18:26.625Z,949
2015-12-18T08:20:30.302Z,949
2015-12-18T08:21:32.570Z,949
2015-12-18T08:23:25.264Z,949
2015-12-18T08:24:24.423Z,949
2015-12-18T08:25:23.315Z,949
2015-12-18T08:26:22.536Z,949
2015-12-18T08:27:22.008Z,949
2015-12-18T08:29:20.747Z,949
2015-12-18T08:30:22.157Z,949
2015-12-18T08:31:21.379Z,949
2015-12-18T08:32:20.600Z,949
2015-12-18T08:33:19.774Z,949
2015-12-18T08:34:19.231Z,949
2015-12-18T08:35:18.186Z,949
2015-12-18T08:36:17.409Z,949
2015-12-18T08:39:20.214Z,949
2015-12-18T08:40:17.091Z,949
2015-12-18T08:41:16.000Z,949
2015-12-18T08:42:15.175Z,949
2015-12-18T08:43:19.537Z,949
2015-12-18T08:44:13.884Z,949
2015-12-18T08:45:13.087Z,949
2015-12-18T08:46:12.027Z,949
2015-12-18T08:47:11.201Z,949
2015-12-18T08:48:13.407Z,949
2015-12-18T08:49:09.676Z,949
2015-12-18T08:50:11.381Z,949
2015-12-18T08:51:10.603Z,949
2015-12-18T08:53:09.264Z,950
2015-12-18T08:54:08.455Z,950
2015-12-18T08:55:07.895Z,950
2015-12-18T08:56:06.867Z,950
2015-12-18T08:57:06.072Z,950
2015-12-18T08:58:05.810Z,950
2015-12-18T08:59:04.844Z,950
2015-12-18T09:00:06.252Z,950
2015-12-18T09:01:05.021Z,949
2015-12-18T09:02:04.664Z,950
2015-12-18T09:03:03.871Z,950
2015-12-18T09:04:03.077Z,949
2015-12-18T09:05:02.533Z,950
2015-12-18T09:06:01.676Z,950
2015-12-18T09:07:00.882Z,949
2015-12-18T09:08:00.102Z,949
2015-12-18T09:08:59.169Z,950
2015-12-18T09:10:00.858Z,950
2015-12-18T09:11:00.064Z,949
2015-12-18T09:12:02.598Z,949
2015-12-18T09:13:57.666Z,949
2015-12-18T09:14:56.872Z,949
2015-12-18T09:15:59.077Z,949
2015-12-18T09:16:58.330Z,949
2015-12-18T09:17:54.705Z,949
2015-12-18T09:18:53.740Z,949
2015-12-18T09:19:55.695Z,949
2015-12-18T09:20:57.698Z,949
2015-12-18T09:21:57.108Z,949
2015-12-18T09:23:52.582Z,949
2015-12-18T09:24:51.475Z,949
2015-12-18T09:25:50.681Z,950
2015-12-18T09:27:49.140Z,949
2015-12-18T09:28:48.360Z,949
2015-12-18T09:29:50.098Z,950
2015-12-18T09:31:51.838Z,949
2015-12-18T09:32:47.715Z,950
2015-12-18T09:33:46.875Z,949
2015-12-18T09:34:46.081Z,950
2015-12-18T09:35:45.302Z,950
2015-12-18T09:36:47.507Z,949
2015-12-18T09:37:44.027Z,949
2015-12-18T09:38:43.218Z,950
2015-12-18T09:39:44.923Z,949
2015-12-18T09:40:44.160Z,949
2015-12-18T09:41:43.616Z,949
2015-12-18T09:46:47.192Z,949
2015-12-18T09:47:40.645Z,949
2015-12-18T09:48:40.381Z,949
2015-12-18T09:49:41.837Z,949
2015-12-18T09:51:43.156Z,949
2015-12-18T09:52:40.221Z,949
2015-12-18T09:53:39.443Z,949
2015-12-18T09:54:39.212Z,949
2015-12-18T09:56:41.014Z,949
2015-12-18T09:59:39.053Z,949
2015-12-18T10:00:38.712Z,949
2015-12-18T10:01:39.559Z,949
2015-12-18T10:02:40.640Z,949
2015-12-18T10:03:37.346Z,949
2015-12-18T10:04:36.833Z,949
2015-12-18T10:06:36.259Z,949
2015-12-18T10:09:37.518Z,949
2015-12-18T10:11:36.915Z,949
2015-12-18T10:12:39.636Z,949
2015-12-18T10:13:36.342Z,949
2015-12-18T10:14:36.079Z,949
2015-12-18T10:15:35.784Z,950
2015-12-18T10:16:35.507Z,950
2015-12-18T10:20:39.408Z,949
2015-12-18T10:21:36.126Z,949
2015-12-18T10:23:35.586Z,949
2015-12-18T10:24:35.275Z,949
2015-12-18T10:25:34.998Z,949
2015-12-18T10:26:37.719Z,950
2015-12-18T10:27:34.440Z,950
2015-12-18T10:28:34.209Z,949
2015-12-18T10:30:35.636Z,950
2015-12-18T10:31:35.373Z,949
2015-12-18T10:32:35.078Z,949
2015-12-18T10:33:34.816Z,949
2015-12-18T10:34:34.506Z,949
2015-12-18T10:35:37.244Z,950
2015-12-18T10:36:34.247Z,950
2015-12-18T10:37:33.670Z,950
2015-12-18T10:38:33.720Z,950
2015-12-18T10:39:35.129Z,950
2015-12-18T10:40:34.866Z,950
2015-12-18T10:41:34.588Z,950
2015-12-18T10:42:37.309Z,950
2015-12-18T10:43:37.016Z,949
2015-12-18T10:44:34.003Z,949
2015-12-18T10:45:33.756Z,949
2015-12-18T10:46:33.181Z,949
2015-12-18T10:47:37.995Z,949
2015-12-18T10:48:32.920Z,949
2015-12-18T10:49:37.376Z,949
2015-12-18T10:50:34.394Z,949
2015-12-18T10:51:33.788Z,949
2015-12-18T10:52:33.509Z,949
2015-12-18T10:53:33.247Z,948
2015-12-18T10:54:33.468Z,948
2015-12-18T10:55:32.674Z,948
2015-12-18T10:56:35.380Z,948
2015-12-18T10:58:32.385Z,948
2015-12-18T11:00:33.335Z,948
2015-12-18T11:01:35.541Z,949
2015-12-18T11:03:31.466Z,949
2015-12-18T11:04:31.453Z,951
2015-12-18T11:05:34.113Z,951
2015-12-18T11:06:30.241Z,950
2015-12-18T11:07:29.789Z,950
2015-12-18T11:08:29.026Z,949
2015-12-18T11:09:30.716Z,949
2015-12-18T11:11:29.097Z,948
2015-12-18T11:12:28.335Z,948
2015-12-18T11:13:30.588Z,948
2015-12-18T11:14:29.966Z,948
2015-12-18T11:15:26.250Z,948
2015-12-18T11:16:25.143Z,948
2015-12-18T11:17:29.505Z,948
2015-12-18T11:20:24.529Z,948
2015-12-18T11:21:23.734Z,947
2015-12-18T11:22:29.191Z,947
2015-12-18T11:23:25.475Z,947
2015-12-18T11:25:20.871Z,947
2015-12-18T11:26:19.983Z,947
2015-12-18T11:27:18.969Z,946
2015-12-18T11:28:18.551Z,946
2015-12-18T11:30:22.072Z,946
2015-12-18T11:32:23.031Z,947
2015-12-18T11:34:18.018Z,947
2015-12-18T11:35:13.833Z,947
2015-12-18T11:36:12.804Z,947
2015-12-18T11:37:11.760Z,947
2015-12-18T11:38:10.888Z,947
2015-12-18T11:40:11.674Z,947
2015-12-18T11:41:13.349Z,947
2015-12-18T11:42:09.305Z,947
2015-12-18T11:43:08.293Z,947
2015-12-18T11:45:11.610Z,946
2015-12-18T11:46:04.879Z,946
2015-12-18T11:47:03.475Z,947
2015-12-18T11:48:02.478Z,946
2015-12-18T11:49:04.199Z,947
2015-12-18T11:50:03.483Z,947
2015-12-18T11:52:01.021Z,947
2015-12-18T11:53:00.273Z,947
2015-12-18T11:55:01.232Z,947
2015-12-18T11:55:56.828Z,946
2015-12-18T11:56:55.784Z,946
2015-12-18T11:57:54.787Z,946
2015-12-18T11:58:56.476Z,946
2015-12-18T11:59:55.683Z,946
2015-12-18T12:00:54.355Z,947
2015-12-18T12:01:56.063Z,947
2015-12-18T12:02:54.985Z,947
2015-12-18T12:03:51.019Z,947
2015-12-18T12:04:49.397Z,947
2015-12-18T12:05:48.306Z,947
2015-12-18T12:06:47.246Z,947
2015-12-18T12:07:45.952Z,947
2015-12-18T12:08:47.501Z,947
2015-12-18T12:09:49.473Z,947
2015-12-18T12:10:45.664Z,947
2015-12-18T12:11:44.087Z,947
2015-12-18T12:12:45.748Z,947
2015-12-18T12:13:41.750Z,947
2015-12-18T12:15:41.849Z,947
2015-12-18T12:16:40.539Z,947
2015-12-18T12:17:36.262Z,947
2015-12-18T12:18:37.998Z,947
2015-12-18T12:19:36.939Z,947
2015-12-18T12:20:35.613Z,947
2015-12-18T12:21:33.319Z,947
2015-12-18T12:22:32.478Z,947
2015-12-18T12:23:31.384Z,947
2015-12-18T12:24:30.356Z,947
2015-12-18T12:25:28.592Z,947
2015-12-18T12:26:30.048Z,947
2015-12-18T12:27:25.473Z,947
2015-12-18T12:29:29.370Z,947
2015-12-18T12:32:36.503Z,947
2015-12-18T12:33:38.287Z,947
2015-12-18T12:35:42.823Z,947
2015-12-18T12:36:45.123Z,947
2015-12-18T12:37:47.488Z,948
2015-12-18T12:38:49.178Z,948
2015-12-18T12:39:51.697Z,947
2015-12-18T12:40:53.964Z,947
2015-12-18T12:42:58.267Z,947
2015-12-18T12:44:03.755Z,947
2015-12-18T12:45:02.819Z,948
2015-12-18T12:46:04.291Z,947
2015-12-18T12:47:03.528Z,947
2015-12-18T12:48:06.155Z,947
2015-12-18T12:49:07.580Z,947
2015-12-18T12:50:12.865Z,947
2015-12-18T12:51:11.305Z,947
2015-12-18T12:53:13.122Z,947
2015-12-18T12:54:15.094Z,948
2015-12-18T12:55:17.394Z,948
2015-12-18T12:56:25.709Z,948
2015-12-18T12:57:24.961Z,948
2015-12-18T12:58:27.293Z,948
2015-12-18T12:59:25.999Z,948
2015-12-18T13:00:28.205Z,948
2015-12-18T13:02:33.147Z,948
2015-12-18T13:03:34.791Z,948
2015-12-18T13:04:37.653Z,948
2015-12-18T13:05:39.656Z,948
2015-12-18T13:06:44.941Z,948
2015-12-18T13:08:46.539Z,948
2015-12-18T13:09:48.245Z,948
2015-12-18T13:10:50.280Z,948
2015-12-18T13:11:52.318Z,948
2015-12-18T13:12:57.320Z,948
2015-12-18T13:13:56.588Z,948
2015-12-18T13:16:00.922Z,948
2015-12-18T13:17:02.926Z,948
2015-12-18T13:18:10.974Z,948
2015-12-18T13:19:08.431Z,948
2015-12-18T13:20:08.496Z,948
2015-12-18T13:21:10.795Z,949
2015-12-18T13:22:12.533Z,949
2015-12-18T13:23:14.536Z,949
2015-12-18T13:24:16.820Z,949
2015-12-18T13:25:18.338Z,949
2015-12-18T13:26:23.137Z,949
2015-12-18T13:27:21.890Z,949
2015-12-18T13:28:23.924Z,949
2015-12-18T13:29:25.787Z,949
2015-12-18T13:30:27.399Z,949
2015-12-18T13:31:29.183Z,949
2015-12-18T13:32:30.935Z,949
2015-12-18T13:33:32.485Z,949
2015-12-18T13:34:37.254Z,949
2015-12-18T13:35:36.288Z,949
2015-12-18T13:36:37.759Z,949
2015-12-18T13:37:39.527Z,949
2015-12-18T13:40:45.035Z,949
2015-12-18T13:41:46.585Z,949
2015-12-18T13:43:50.138Z,949
2015-12-18T13:44:55.656Z,949
2015-12-18T13:46:55.974Z,949
2015-12-18T13:48:59.199Z,950
2015-12-18T13:50:01.029Z,950
2015-12-18T13:51:02.734Z,950
2015-12-18T13:52:04.487Z,950
2015-12-18T13:53:06.256Z,950
2015-12-18T13:54:11.040Z,950
2015-12-18T13:55:09.793Z,950
2015-12-18T13:56:11.905Z,950
2015-12-18T13:57:13.329Z,950
2015-12-18T13:59:17.116Z,950
2015-12-18T14:00:18.681Z,950
2015-12-18T14:02:22.156Z,950
2015-12-18T14:03:24.236Z,950
2015-12-18T14:04:25.708Z,950
2015-12-18T14:05:27.759Z,950
2015-12-18T14:06:29.511Z,950
2015-12-18T14:07:30.982Z,950
2015-12-18T14:08:32.751Z,950
2015-12-18T14:09:37.566Z,950
2015-12-18T14:10:36.334Z,950
2015-12-18T14:11:38.056Z,950
2015-12-18T14:12:39.809Z,950
2015-12-18T14:13:41.842Z,950
2015-12-18T14:15:45.348Z,950
2015-12-18T14:16:47.586Z,950
2015-12-18T14:17:49.400Z,950
2015-12-18T14:18:51.684Z,950
2015-12-18T14:19:53.437Z,950
2015-12-18T14:20:58.550Z,950
2015-12-18T14:22:00.755Z,950
2015-12-18T14:22:59.274Z,951
2015-12-18T14:25:05.983Z,950
2015-12-18T14:26:05.376Z,950
2015-12-18T14:27:07.097Z,951
2015-12-18T14:29:11.446Z,950
2015-12-18T14:30:13.449Z,951
2015-12-18T14:31:18.249Z,951
2015-12-18T14:32:19.970Z,951
2015-12-18T14:33:18.989Z,951
2015-12-18T14:34:20.960Z,951
2015-12-18T14:35:22.963Z,951
2015-12-18T14:36:25.293Z,951
2015-12-18T14:37:27.061Z,951
2015-12-18T14:38:29.347Z,951
2015-12-18T14:39:34.818Z,951
2015-12-18T14:40:36.899Z,951
2015-12-18T14:41:39.448Z,951
2015-12-18T14:42:37.951Z,951
2015-12-18T14:44:42.003Z,951
2015-12-18T14:45:44.349Z,951
2015-12-18T14:46:46.040Z,951
2015-12-18T14:48:50.327Z,951
2015-12-18T14:49:52.344Z,951
2015-12-18T14:50:54.380Z,951
2015-12-18T14:56:04.549Z,951
2015-12-18T14:57:06.272Z,951
2015-12-18T14:58:08.571Z,951
2015-12-18T14:59:10.292Z,951
2015-12-18T15:01:14.344Z,951
2015-12-18T15:03:18.116Z,951
2015-12-18T15:06:24.452Z,951
2015-12-18T15:08:34.257Z,951
2015-12-18T15:10:32.824Z,951
2015-12-18T15:11:37.515Z,951
2015-12-18T15:12:41.502Z,951
2015-12-18T15:14:40.368Z,951
2015-12-18T15:15:42.433Z,951
2015-12-18T15:16:44.154Z,951
2015-12-18T15:17:49.204Z,951
2015-12-18T15:18:48.535Z,951
2015-12-18T15:19:50.257Z,952
2015-12-18T15:21:54.277Z,951
2015-12-18T15:22:56.374Z,951
2015-12-18T15:25:03.098Z,951
2015-12-18T15:26:02.384Z,952
2015-12-18T15:27:04.093Z,951
2015-12-18T15:28:09.629Z,951
2015-12-18T15:29:13.259Z,952
2015-12-18T15:30:10.132Z,952
2015-12-18T15:31:12.161Z,952
2015-12-18T15:32:17.190Z,951
2015-12-18T15:33:16.265Z,951
2015-12-18T15:34:17.983Z,952
2015-12-18T15:35:19.999Z,952
2015-12-18T15:36:22.297Z,952
2015-12-18T15:38:26.080Z,952
2015-12-18T15:39:31.597Z,952
2015-12-18T15:40:30.099Z,952
2015-12-18T15:42:34.166Z,952
2015-12-18T15:43:36.261Z,952
2015-12-18T15:44:37.935Z,952
2015-12-18T15:45:39.969Z,952
2015-12-18T15:46:45.003Z,952
2015-12-18T15:47:44.038Z,952
2015-12-18T15:48:49.306Z,952
2015-12-18T15:49:48.309Z,952
2015-12-18T15:50:53.592Z,952
2015-12-18T15:52:54.645Z,952
2015-12-18T15:53:57.053Z,952
2015-12-18T15:54:58.822Z,952
2015-12-18T15:56:00.465Z,952
2015-12-18T15:57:02.515Z,952
2015-12-18T15:58:04.517Z,952
2015-12-18T15:59:09.864Z,952
2015-12-18T16:00:08.133Z,952
2015-12-18T16:01:10.870Z,952
2015-12-18T16:02:13.217Z,952
2015-12-18T16:03:14.594Z,952
2015-12-18T16:04:16.237Z,952
2015-12-18T16:05:20.959Z,952
2015-12-18T16:06:22.712Z,952
2015-12-18T16:07:21.481Z,952
2015-12-18T16:08:23.234Z,952
2015-12-18T16:09:25.033Z,952
2015-12-18T16:10:27.114Z,952
2015-12-18T16:11:28.538Z,952
2015-12-18T16:13:32.090Z,952
2015-12-18T16:16:37.677Z,952
2015-12-18T16:17:39.164Z,952
2015-12-18T16:18:40.933Z,952
2015-12-18T16:19:43.356Z,952
2015-12-18T16:20:44.689Z,952
2015-12-18T16:21:49.769Z,952
2015-12-18T16:22:48.130Z,952
2015-12-18T16:24:54.652Z,952
2015-12-18T16:25:53.327Z,952
2015-12-18T16:26:55.361Z,952
2015-12-18T16:27:56.801Z,952
2015-12-18T16:28:58.413Z,952
2015-12-18T16:30:02.900Z,952
2015-12-18T16:31:01.387Z,952
2015-12-18T16:32:03.718Z,952
2015-12-18T16:33:04.940Z,952
2015-12-18T16:34:06.724Z,952
2015-12-18T16:35:08.258Z,952
2015-12-18T16:36:15.994Z,952
2015-12-18T16:37:11.482Z,952
2015-12-18T16:38:12.953Z,952
2015-12-18T16:39:17.019Z,952
2015-12-18T16:40:15.255Z,952
2015-12-18T16:42:17.761Z,952
2015-12-18T16:43:19.326Z,952
2015-12-18T16:44:20.283Z,952
2015-12-18T16:45:21.191Z,952
2015-12-18T16:46:23.585Z,952
2015-12-18T16:47:24.572Z,952
2015-12-18T16:48:25.825Z,952
2015-12-18T16:49:27.062Z,953
2015-12-18T16:50:28.064Z,953
2015-12-18T16:51:29.052Z,953
2015-12-18T16:52:30.383Z,953
2015-12-18T16:57:35.068Z,953
2015-12-18T16:58:35.821Z,953
2015-12-18T16:59:36.574Z,953
2015-12-18T17:00:37.296Z,953
2015-12-18T17:01:38.064Z,953
2015-12-18T17:02:39.113Z,953